createdAt,value
2022-08-25T00:01:20.471Z,87.41
2022-08-25T00:03:47.786Z,86.80
2022-08-25T00:06:15.560Z,88.21
2022-08-25T00:08:43.111Z,88.15
2022-08-25T00:11:13.716Z,87.13
2022-08-25T00:13:46.274Z,87.78
2022-08-25T00:16:17.994Z,87.78
2022-08-25T00:18:46.911Z,87.50
2022-08-25T00:21:15.249Z,87.25
2022-08-25T00:23:42.972Z,87.68
2022-08-25T00:26:10.304Z,86.92
2022-08-25T00:28:37.655Z,86.80
2022-08-25T00:31:05.331Z,86.15
2022-08-25T00:33:31.842Z,86.86
2022-08-25T00:35:59.997Z,86.26
2022-08-25T00:38:26.967Z,86.84
2022-08-25T00:41:06.521Z,87.29
2022-08-25T00:43:57.850Z,85.97
2022-08-25T00:46:28.251Z,86.31
2022-08-25T00:49:02.854Z,85.91
2022-08-25T00:51:58.147Z,85.56
2022-08-25T00:54:52.970Z,86.35
2022-08-25T00:57:34.457Z,85.20
2022-08-25T01:00:05.948Z,85.15
2022-08-25T01:02:32.471Z,84.74
2022-08-25T01:04:59.251Z,85.44
2022-08-25T01:07:25.735Z,85.40
2022-08-25T01:09:53.164Z,85.25
2022-08-25T01:12:20.402Z,85.67
2022-08-25T01:14:48.564Z,85.30
2022-08-25T01:17:17.986Z,85.73
2022-08-25T01:19:44.573Z,85.86
2022-08-25T01:22:12.000Z,85.98
2022-08-25T01:24:45.163Z,86.55
2022-08-25T01:27:11.647Z,86.04
2022-08-25T01:29:38.625Z,86.32
2022-08-25T01:32:08.910Z,85.84
2022-08-25T01:34:37.893Z,86.13
2022-08-25T01:37:05.331Z,85.75
2022-08-25T01:39:38.796Z,85.45
2022-08-25T01:42:11.395Z,84.92
2022-08-25T01:44:40.683Z,84.83
2022-08-25T01:47:08.107Z,83.95
2022-08-25T01:49:35.187Z,84.61
2022-08-25T01:52:24.783Z,84.50
2022-08-25T01:54:51.183Z,85.07
2022-08-25T01:57:17.729Z,84.88
2022-08-25T01:59:44.910Z,84.49
2022-08-25T02:02:12.156Z,85.06
2022-08-25T02:04:39.440Z,85.84
2022-08-25T02:07:09.367Z,85.45
2022-08-25T02:09:37.207Z,85.71
2022-08-25T02:12:04.015Z,84.85
2022-08-25T02:14:30.540Z,84.71
2022-08-25T02:16:57.302Z,84.02
2022-08-25T02:19:25.883Z,83.85
2022-08-25T02:21:52.686Z,84.48
2022-08-25T02:24:19.191Z,84.44
2022-08-25T02:26:45.777Z,84.14
2022-08-25T02:29:12.353Z,84.52
2022-08-25T02:31:39.449Z,84.26
2022-08-25T02:34:06.779Z,84.11
2022-08-25T02:36:33.367Z,84.34
2022-08-25T02:39:00.812Z,83.25
2022-08-25T02:41:31.054Z,84.34
2022-08-25T02:43:59.213Z,83.93
2022-08-25T02:46:25.759Z,82.49
2022-08-25T02:48:53.229Z,82.58
2022-08-25T02:51:21.976Z,82.15
2022-08-25T02:53:48.859Z,82.18
2022-08-25T02:56:18.155Z,81.81
2022-08-25T02:58:45.884Z,81.83
2022-08-25T03:01:12.880Z,81.77
2022-08-25T03:03:40.645Z,81.09
2022-08-25T03:06:09.724Z,81.66
2022-08-25T03:08:37.139Z,81.14
2022-08-25T03:11:05.521Z,81.36
2022-08-25T03:13:32.657Z,81.30
2022-08-25T03:16:00.399Z,80.98
2022-08-25T03:18:27.463Z,81.80
2022-08-25T03:20:54.851Z,81.84
2022-08-25T03:23:21.237Z,82.29
2022-08-25T03:26:06.275Z,82.65
2022-08-25T03:28:33.222Z,82.00
2022-08-25T03:31:01.197Z,82.59
2022-08-25T03:33:31.698Z,81.38
2022-08-25T03:35:59.179Z,82.38
2022-08-25T03:38:26.339Z,82.56
2022-08-25T03:40:53.507Z,82.05
2022-08-25T03:43:20.516Z,81.76
2022-08-25T03:45:47.832Z,81.88
2022-08-25T03:48:15.440Z,81.81
2022-08-25T03:50:50.670Z,82.48
2022-08-25T03:53:19.704Z,81.91
2022-08-25T03:55:46.223Z,81.92
2022-08-25T03:58:12.771Z,82.20
2022-08-25T04:00:39.523Z,81.80
2022-08-25T04:03:06.120Z,82.35
2022-08-25T04:05:32.974Z,82.49
2022-08-25T04:08:01.623Z,83.02
2022-08-25T04:10:28.950Z,82.89
2022-08-25T04:12:56.024Z,83.20
2022-08-25T04:15:28.485Z,83.81
2022-08-25T04:17:58.736Z,83.36
2022-08-25T04:20:25.324Z,83.00
2022-08-25T04:22:51.794Z,83.66
2022-08-25T04:25:18.193Z,83.71
2022-08-25T04:27:44.597Z,83.83
2022-08-25T04:30:11.686Z,84.35
2022-08-25T04:32:38.028Z,84.41
2022-08-25T04:35:05.420Z,84.19
2022-08-25T04:37:33.558Z,84.08
2022-08-25T04:40:00.376Z,84.32
2022-08-25T04:42:27.234Z,84.94
2022-08-25T04:44:54.522Z,84.90
2022-08-25T04:47:21.106Z,85.39
2022-08-25T04:49:47.796Z,85.52
2022-08-25T04:52:14.747Z,85.88
2022-08-25T04:54:41.997Z,86.50
2022-08-25T04:57:08.361Z,85.93
2022-08-25T04:59:34.825Z,85.71
2022-08-25T05:02:05.549Z,86.26
2022-08-25T05:04:34.695Z,86.21
2022-08-25T05:07:01.716Z,87.32
2022-08-25T05:09:28.427Z,88.06
2022-08-25T05:11:55.279Z,88.13
2022-08-25T05:14:22.635Z,88.09
2022-08-25T05:16:53.238Z,87.95
2022-08-25T05:19:19.797Z,87.21
2022-08-25T05:21:46.236Z,87.41
2022-08-25T05:24:12.644Z,87.22
2022-08-25T05:26:39.689Z,87.39
2022-08-25T05:29:06.217Z,87.62
2022-08-25T05:31:34.399Z,87.25
2022-08-25T05:34:07.825Z,87.47
2022-08-25T05:36:34.283Z,88.42
2022-08-25T05:39:00.858Z,88.49
2022-08-25T05:41:30.192Z,86.22
2022-08-25T05:43:57.210Z,88.65
2022-08-25T05:46:24.232Z,87.77
2022-08-25T05:48:50.947Z,88.55
2022-08-25T05:51:17.667Z,88.50
2022-08-25T05:53:47.970Z,87.42
2022-08-25T05:56:14.759Z,87.99
2022-08-25T05:58:42.395Z,88.95
2022-08-25T06:01:28.943Z,86.43
2022-08-25T06:03:55.533Z,86.78
2022-08-25T06:06:23.384Z,87.32
2022-08-25T06:08:50.370Z,85.68
2022-08-25T06:11:16.825Z,87.02
2022-08-25T06:13:43.444Z,87.34
2022-08-25T06:16:09.992Z,87.15
2022-08-25T06:18:36.507Z,87.44
2022-08-25T06:21:14.211Z,84.81
2022-08-25T06:23:40.780Z,85.20
2022-08-25T06:26:10.843Z,84.59
2022-08-25T06:28:40.128Z,84.32
2022-08-25T06:31:06.694Z,85.66
2022-08-25T06:33:33.297Z,84.87
2022-08-25T06:35:59.890Z,85.06
2022-08-25T06:38:27.169Z,84.31
2022-08-25T06:40:54.061Z,84.78
2022-08-25T06:43:21.538Z,82.00
2022-08-25T06:45:48.456Z,83.67
2022-08-25T06:48:15.434Z,85.48
2022-08-25T06:50:43.212Z,84.77
2022-08-25T06:53:09.745Z,83.26
2022-08-25T06:55:36.802Z,84.21
2022-08-25T06:58:04.954Z,82.45
2022-08-25T07:00:33.137Z,80.74
2022-08-25T07:03:01.087Z,81.65
2022-08-25T07:05:40.946Z,81.05
2022-08-25T07:08:11.576Z,81.47
2022-08-25T07:10:37.987Z,80.58
2022-08-25T07:13:04.365Z,82.84
2022-08-25T07:15:30.766Z,81.31
2022-08-25T07:17:57.714Z,82.18
2022-08-25T07:22:51.988Z,83.48
2022-08-25T07:25:18.508Z,80.23
2022-08-25T07:27:45.556Z,81.65
2022-08-25T07:30:12.050Z,79.53
2022-08-25T07:32:42.228Z,77.32
2022-08-25T07:35:16.131Z,75.38
2022-08-25T07:40:37.658Z,77.65
2022-08-25T07:43:09.478Z,75.11
2022-08-25T07:45:48.511Z,73.89
2022-08-25T07:48:19.657Z,72.15
2022-08-25T07:50:47.571Z,72.83
2022-08-25T07:53:16.220Z,71.42
2022-08-25T07:55:42.771Z,71.47
2022-08-25T07:58:12.365Z,71.01
2022-08-25T08:00:40.494Z,71.79
2022-08-25T08:03:12.838Z,70.18
2022-08-25T08:05:50.522Z,70.87
2022-08-25T08:08:16.915Z,69.82
2022-08-25T08:11:04.079Z,69.83
2022-08-25T08:13:34.864Z,68.59
2022-08-25T08:16:09.462Z,66.87
2022-08-25T08:18:35.984Z,66.14
2022-08-25T08:21:02.412Z,66.43
2022-08-25T08:23:30.547Z,67.05
2022-08-25T08:25:57.142Z,66.74
2022-08-25T08:28:27.727Z,62.91
2022-08-25T08:30:54.337Z,62.65
2022-08-25T08:33:22.767Z,60.97
2022-08-25T08:35:55.955Z,62.16
2022-08-25T08:38:27.057Z,61.34
2022-08-25T08:42:07.629Z,58.63
2022-08-25T08:44:45.575Z,58.41
2022-08-25T08:47:11.919Z,58.95
2022-08-25T08:49:54.316Z,58.36
2022-08-25T08:52:24.492Z,57.98
2022-08-25T08:55:00.816Z,57.38
2022-08-25T08:57:28.912Z,55.34
2022-08-25T09:00:05.340Z,55.45
2022-08-25T09:02:51.746Z,55.48
2022-08-25T09:05:21.135Z,55.02
2022-08-25T09:07:54.814Z,54.84
2022-08-25T09:10:24.350Z,55.42
2022-08-25T09:13:16.543Z,54.45
2022-08-25T09:16:18.341Z,53.96
2022-08-25T09:19:23.333Z,53.42
2022-08-25T09:22:34.971Z,54.00
2022-08-25T09:25:11.233Z,52.63
2022-08-25T09:28:27.489Z,51.90
2022-08-25T09:30:57.811Z,51.21
2022-08-25T09:33:29.371Z,52.58
2022-08-25T09:36:09.245Z,50.92
2022-08-25T09:38:36.282Z,51.79
2022-08-25T09:41:06.990Z,49.98
2022-08-25T09:43:53.703Z,50.68
2022-08-25T09:46:29.694Z,49.67
2022-08-25T09:49:10.276Z,49.75
2022-08-25T09:51:42.793Z,48.90
2022-08-25T09:54:12.639Z,49.46
2022-08-25T09:57:01.774Z,48.25
2022-08-25T09:59:35.444Z,47.96
2022-08-25T10:02:26.127Z,47.86
2022-08-25T10:04:53.640Z,47.76
2022-08-25T10:07:27.734Z,47.61
2022-08-25T10:09:58.550Z,46.56
2022-08-25T10:12:32.544Z,49.89
2022-08-25T10:14:59.429Z,45.58
2022-08-25T10:17:33.595Z,44.59
2022-08-25T10:20:21.470Z,44.11
2022-08-25T10:22:50.409Z,44.40
2022-08-25T10:25:25.427Z,43.54
2022-08-25T10:28:24.147Z,43.48
2022-08-25T10:31:15.836Z,44.61
2022-08-25T10:34:21.263Z,42.89
2022-08-25T10:37:32.696Z,41.73
2022-08-25T10:40:24.877Z,42.47
2022-08-25T10:43:13.430Z,41.87
2022-08-25T10:45:49.839Z,41.23
2022-08-25T10:48:52.661Z,41.82
2022-08-25T10:51:28.231Z,39.96
2022-08-25T10:54:05.932Z,40.30
2022-08-25T10:56:40.916Z,40.13
2022-08-25T10:59:22.533Z,40.74
2022-08-25T11:02:03.918Z,41.66
2022-08-25T11:04:48.860Z,38.49
2022-08-25T11:07:45.736Z,38.33
2022-08-25T11:10:20.138Z,38.98
2022-08-25T11:12:54.663Z,40.49
2022-08-25T11:15:34.088Z,40.02
2022-08-25T11:18:14.721Z,38.47
2022-08-25T11:21:01.787Z,38.63
2022-08-25T11:23:40.196Z,37.96
2022-08-25T11:26:12.798Z,38.76
2022-08-25T11:28:46.671Z,39.60
2022-08-25T11:31:14.700Z,38.15
2022-08-25T11:33:43.379Z,37.38
2022-08-25T11:36:32.681Z,36.59
2022-08-25T11:39:22.006Z,38.59
2022-08-25T11:42:31.939Z,36.35
2022-08-25T11:45:35.836Z,37.25
2022-08-25T11:48:27.753Z,34.92
2022-08-25T11:51:10.828Z,36.70
2022-08-25T11:53:41.781Z,36.42
2022-08-25T11:56:33.198Z,35.58
2022-08-25T11:59:01.233Z,36.07
2022-08-25T12:01:39.417Z,34.90
2022-08-25T12:04:31.149Z,35.87
2022-08-25T12:07:07.012Z,35.81
2022-08-25T12:09:53.923Z,34.67
2022-08-25T12:12:32.693Z,35.73
2022-08-25T12:15:36.602Z,36.11
2022-08-25T12:18:18.686Z,34.74
2022-08-25T12:20:53.954Z,35.56
2022-08-25T12:23:33.025Z,36.05
2022-08-25T12:26:34.888Z,34.66
2022-08-25T12:29:15.197Z,34.61
2022-08-25T12:32:06.932Z,34.74
2022-08-25T12:35:13.911Z,34.97
2022-08-25T12:37:57.455Z,35.61
2022-08-25T12:40:36.977Z,36.00
2022-08-25T12:43:10.532Z,35.68
2022-08-25T12:45:43.342Z,34.95
2022-08-25T12:48:27.948Z,35.35
2022-08-25T12:51:00.387Z,35.36
2022-08-25T12:53:44.187Z,34.74
2022-08-25T12:56:20.278Z,34.32
2022-08-25T12:59:00.251Z,35.03
2022-08-25T13:01:52.334Z,34.16
2022-08-25T13:05:00.850Z,34.76
2022-08-25T13:07:53.415Z,35.21
2022-08-25T13:10:20.721Z,35.15
2022-08-25T13:13:00.295Z,34.47
2022-08-25T13:15:41.811Z,35.45
2022-08-25T13:18:21.911Z,35.90
2022-08-25T13:20:52.542Z,35.78
2022-08-25T13:23:25.787Z,35.26
2022-08-25T13:25:54.159Z,36.11
2022-08-25T13:28:31.242Z,37.12
2022-08-25T13:31:22.564Z,36.46
2022-08-25T13:34:02.256Z,35.76
2022-08-25T13:36:54.180Z,36.11
2022-08-25T13:39:45.695Z,36.29
2022-08-25T13:42:16.040Z,38.26
2022-08-25T13:44:51.769Z,35.58
2022-08-25T13:47:45.674Z,35.68
2022-08-25T13:50:28.349Z,35.00
2022-08-25T13:53:01.818Z,34.47
2022-08-25T13:55:50.872Z,34.45
2022-08-25T13:58:24.847Z,34.64
2022-08-25T14:01:22.233Z,33.62
2022-08-25T14:04:39.691Z,33.46
2022-08-25T14:07:23.020Z,33.34
2022-08-25T14:10:03.960Z,33.37
2022-08-25T14:12:33.609Z,34.42
2022-08-25T14:15:20.255Z,35.15
2022-08-25T14:18:04.588Z,33.48
2022-08-25T14:20:33.734Z,34.07
2022-08-25T14:23:05.664Z,33.33
2022-08-25T14:25:36.881Z,33.55
2022-08-25T14:28:15.000Z,33.34
2022-08-25T14:30:51.667Z,34.94
2022-08-25T14:33:21.782Z,34.71
2022-08-25T14:35:53.762Z,34.87
2022-08-25T14:38:21.422Z,35.18
2022-08-25T14:40:49.785Z,35.07
2022-08-25T14:43:16.907Z,34.63
2022-08-25T14:45:46.954Z,34.20
2022-08-25T14:48:24.205Z,33.79
2022-08-25T14:50:51.764Z,34.35
2022-08-25T14:53:18.200Z,33.92
2022-08-25T14:55:44.604Z,34.90
2022-08-25T14:58:11.045Z,32.88
2022-08-25T15:00:41.747Z,32.85
2022-08-25T15:03:10.221Z,32.67
2022-08-25T15:05:36.983Z,33.62
2022-08-25T15:08:22.415Z,34.17
2022-08-25T15:10:48.801Z,34.05
2022-08-25T15:13:15.179Z,32.83
2022-08-25T15:15:58.126Z,33.02
2022-08-25T15:18:25.767Z,33.62
2022-08-25T15:20:52.141Z,33.93
2022-08-25T15:23:19.428Z,33.28
2022-08-25T15:25:47.829Z,33.72
2022-08-25T15:28:17.238Z,33.71
2022-08-25T15:30:45.699Z,33.20
2022-08-25T15:33:13.364Z,33.17
2022-08-25T15:35:41.135Z,33.26
2022-08-25T15:38:08.058Z,33.15
2022-08-25T15:40:37.377Z,33.00
2022-08-25T15:43:03.933Z,32.88
2022-08-25T15:45:30.497Z,33.35
2022-08-25T15:47:57.176Z,32.69
2022-08-25T15:50:26.000Z,34.12
2022-08-25T15:52:52.888Z,33.28
2022-08-25T15:55:20.032Z,32.30
2022-08-25T15:57:47.750Z,32.41
2022-08-25T16:00:17.954Z,33.22
2022-08-25T16:02:45.608Z,31.83
2022-08-25T16:05:13.693Z,33.17
2022-08-25T16:07:42.679Z,34.00
2022-08-25T16:10:09.908Z,33.43
2022-08-25T16:12:37.696Z,32.89
2022-08-25T16:15:04.303Z,33.69
2022-08-25T16:17:30.695Z,33.29
2022-08-25T16:19:57.254Z,33.45
2022-08-25T16:22:23.627Z,33.65
2022-08-25T16:24:52.406Z,33.38
2022-08-25T16:27:19.892Z,34.02
2022-08-25T16:29:47.193Z,34.56
2022-08-25T16:32:14.993Z,34.14
2022-08-25T16:34:44.287Z,34.23
2022-08-25T16:37:11.467Z,33.26
2022-08-25T16:39:39.995Z,33.30
2022-08-25T16:42:07.795Z,33.77
2022-08-25T16:44:34.434Z,33.93
2022-08-25T16:47:01.363Z,33.96
2022-08-25T16:49:27.938Z,33.25
2022-08-25T16:51:57.589Z,34.44
2022-08-25T16:54:43.740Z,35.55
2022-08-25T16:57:10.806Z,34.74
2022-08-25T16:59:37.232Z,35.31
2022-08-25T17:02:03.907Z,36.67
2022-08-25T17:04:32.129Z,38.95
2022-08-25T17:06:59.071Z,39.46
2022-08-25T17:09:25.524Z,40.31
2022-08-25T17:11:56.485Z,41.53
2022-08-25T17:14:22.937Z,41.11
2022-08-25T17:16:51.327Z,41.86
2022-08-25T17:19:18.586Z,42.50
2022-08-25T17:21:49.949Z,43.63
2022-08-25T17:24:17.491Z,44.02
2022-08-25T17:26:46.291Z,44.90
2022-08-25T17:29:13.146Z,44.30
2022-08-25T17:31:40.456Z,45.64
2022-08-25T17:34:10.334Z,46.47
2022-08-25T17:36:38.377Z,47.01
2022-08-25T17:39:08.651Z,48.42
2022-08-25T17:41:37.808Z,49.47
2022-08-25T17:44:05.020Z,49.66
2022-08-25T17:46:31.804Z,49.92
2022-08-25T17:48:58.362Z,49.70
2022-08-25T17:51:25.160Z,50.25
2022-08-25T17:53:52.786Z,50.47
2022-08-25T17:56:22.131Z,51.47
2022-08-25T17:58:49.191Z,51.45
2022-08-25T18:01:19.738Z,52.04
2022-08-25T18:03:49.115Z,52.13
2022-08-25T18:06:16.150Z,52.60
2022-08-25T18:08:43.599Z,52.61
2022-08-25T18:11:09.938Z,52.74
2022-08-25T18:13:38.127Z,52.91
2022-08-25T18:16:05.514Z,53.41
2022-08-25T18:18:34.265Z,52.69
2022-08-25T18:21:01.430Z,53.78
2022-08-25T18:23:28.622Z,53.79
2022-08-25T18:26:00.771Z,53.07
2022-08-25T18:28:28.878Z,53.02
2022-08-25T18:30:55.487Z,52.90
2022-08-25T18:33:22.733Z,52.90
2022-08-25T18:35:49.156Z,53.06
2022-08-25T18:38:34.267Z,53.69
2022-08-25T18:41:04.948Z,54.21
2022-08-25T18:43:33.988Z,54.35
2022-08-25T18:46:04.846Z,54.68
2022-08-25T18:48:32.079Z,54.52
2022-08-25T18:51:00.467Z,54.77
2022-08-25T18:53:30.091Z,54.80
2022-08-25T18:56:03.934Z,54.67
2022-08-25T18:58:30.435Z,55.00
2022-08-25T19:00:56.808Z,55.59
2022-08-25T19:03:23.447Z,55.24
2022-08-25T19:05:57.026Z,56.20
2022-08-25T19:08:24.634Z,57.03
2022-08-25T19:10:53.489Z,57.27
2022-08-25T19:13:22.831Z,57.53
2022-08-25T19:15:51.259Z,55.65
2022-08-25T19:18:18.401Z,56.86
2022-08-25T19:20:45.310Z,57.25
2022-08-25T19:23:13.063Z,57.45
2022-08-25T19:25:41.537Z,57.70
2022-08-25T19:28:11.986Z,57.75
2022-08-25T19:30:39.177Z,57.86
2022-08-25T19:33:41.944Z,57.76
2022-08-25T19:36:05.824Z,56.85
2022-08-25T19:38:35.599Z,57.47
2022-08-25T19:41:02.488Z,57.41
2022-08-25T19:43:28.892Z,58.65
2022-08-25T19:45:55.328Z,58.59
2022-08-25T19:48:23.326Z,58.52
2022-08-25T19:50:56.108Z,59.88
2022-08-25T19:53:22.986Z,60.70
2022-08-25T19:55:49.895Z,61.07
2022-08-25T19:58:17.881Z,61.14
2022-08-25T20:00:47.115Z,61.16
2022-08-25T20:03:17.317Z,60.71
2022-08-25T20:05:43.618Z,61.68
2022-08-25T20:08:10.351Z,60.65
2022-08-25T20:10:41.688Z,61.18
2022-08-25T20:13:09.626Z,60.18
2022-08-25T20:15:38.009Z,62.54
2022-08-25T20:18:06.025Z,62.89
2022-08-25T20:20:34.643Z,61.57
2022-08-25T20:23:21.072Z,61.74
2022-08-25T20:25:50.222Z,64.88
2022-08-25T20:28:18.888Z,64.68
2022-08-25T20:30:45.933Z,67.23
2022-08-25T20:33:12.627Z,68.73
2022-08-25T20:35:39.013Z,69.52
2022-08-25T20:38:07.966Z,70.17
2022-08-25T20:40:34.909Z,70.80
2022-08-25T20:43:04.343Z,71.85
2022-08-25T20:45:31.039Z,72.77
2022-08-25T20:47:57.436Z,73.98
2022-08-25T20:50:23.998Z,75.82
2022-08-25T20:52:51.978Z,75.75
2022-08-25T20:55:19.121Z,75.94
2022-08-25T20:57:46.195Z,78.07
2022-08-25T21:00:13.273Z,78.99
2022-08-25T21:02:39.870Z,80.96
2022-08-25T21:05:07.232Z,80.82
2022-08-25T21:07:35.804Z,83.20
2022-08-25T21:10:05.542Z,80.30
2022-08-25T21:12:32.107Z,86.16
2022-08-25T21:14:58.543Z,86.88
2022-08-25T21:17:24.890Z,86.16
2022-08-25T21:19:51.633Z,88.20
2022-08-25T21:22:18.018Z,85.56
2022-08-25T21:24:45.006Z,87.58
2022-08-25T21:27:11.424Z,89.38
2022-08-25T21:29:38.345Z,92.58
2022-08-25T21:32:11.398Z,92.43
2022-08-25T21:34:37.740Z,94.00
2022-08-25T21:37:05.177Z,94.44
2022-08-25T21:39:33.046Z,96.62
2022-08-25T21:41:59.908Z,90.27
2022-08-25T21:44:27.084Z,97.63
2022-08-25T21:46:54.058Z,97.21
2022-08-25T21:49:22.055Z,96.92
2022-08-25T21:51:59.125Z,96.75
2022-08-25T21:54:27.061Z,97.02
2022-08-25T21:56:59.491Z,100.00
2022-08-25T21:59:36.184Z,100.00
2022-08-25T22:02:10.010Z,99.84
2022-08-25T22:04:38.298Z,98.06
2022-08-25T22:07:06.569Z,100.00
2022-08-25T22:09:33.044Z,100.00
2022-08-25T22:11:59.841Z,100.00
2022-08-25T22:14:26.951Z,100.00
2022-08-25T22:16:55.120Z,100.00
2022-08-25T22:19:22.810Z,100.00
2022-08-25T22:21:50.004Z,100.00
2022-08-25T22:24:17.767Z,100.00
2022-08-25T22:26:47.352Z,100.00
2022-08-25T22:29:16.669Z,100.00
2022-08-25T22:31:59.443Z,100.00
2022-08-25T22:34:32.100Z,100.00
2022-08-25T22:37:00.055Z,100.00
2022-08-25T22:39:27.365Z,100.00
2022-08-25T22:41:53.845Z,100.00
2022-08-25T22:44:20.248Z,100.00
2022-08-25T22:46:46.694Z,100.00
2022-08-25T22:49:13.049Z,100.00
2022-08-25T22:51:39.467Z,100.00
2022-08-25T22:54:05.879Z,100.00
2022-08-25T22:56:37.652Z,100.00
2022-08-25T22:59:10.165Z,100.00
2022-08-25T23:01:36.704Z,100.00
2022-08-25T23:04:05.377Z,100.00
2022-08-25T23:06:34.303Z,100.00
2022-08-25T23:09:01.282Z,100.00
2022-08-25T23:11:28.997Z,100.00
2022-08-25T23:13:57.215Z,100.00
2022-08-25T23:16:24.088Z,100.00
2022-08-25T23:18:51.109Z,100.00
2022-08-25T23:21:41.028Z,100.00
2022-08-25T23:24:09.045Z,100.00
2022-08-25T23:26:37.243Z,100.00
2022-08-25T23:29:18.846Z,100.00
2022-08-25T23:31:47.533Z,100.00
2022-08-25T23:34:15.262Z,100.00
2022-08-25T23:36:41.675Z,100.00
2022-08-25T23:39:08.921Z,100.00
2022-08-25T23:41:36.928Z,100.00
2022-08-25T23:44:05.276Z,100.00
2022-08-25T23:46:34.778Z,100.00
2022-08-25T23:49:02.427Z,100.00
2022-08-25T23:51:33.566Z,100.00
2022-08-25T23:54:05.713Z,100.00
2022-08-25T23:56:34.315Z,100.00
2022-08-25T23:59:02.871Z,100.00
